createdAt,value
2022-08-28T00:00:17.296Z,18.52
2022-08-28T00:02:45.701Z,18.52
2022-08-28T00:05:13.768Z,18.53
2022-08-28T00:07:44.308Z,18.53
2022-08-28T00:10:16.806Z,18.51
2022-08-28T00:12:44.828Z,18.53
2022-08-28T00:15:15.558Z,18.58
2022-08-28T00:17:42.297Z,18.59
2022-08-28T00:20:10.973Z,18.59
2022-08-28T00:22:38.820Z,18.60
2022-08-28T00:25:06.926Z,18.49
2022-08-28T00:27:52.226Z,18.47
2022-08-28T00:30:32.101Z,18.40
2022-08-28T00:33:01.785Z,18.40
2022-08-28T00:35:28.597Z,18.37
2022-08-28T00:37:55.354Z,18.36
2022-08-28T00:40:28.975Z,18.35
2022-08-28T00:43:01.362Z,18.29
2022-08-28T00:45:28.367Z,18.26
2022-08-28T00:47:54.943Z,18.23
2022-08-28T00:50:23.912Z,18.23
2022-08-28T00:52:58.434Z,18.25
2022-08-28T00:55:26.980Z,18.26
2022-08-28T00:57:56.786Z,18.27
2022-08-28T01:00:36.387Z,18.29
2022-08-28T01:03:05.609Z,18.30
2022-08-28T01:05:34.188Z,18.30
2022-08-28T01:08:00.959Z,18.26
2022-08-28T01:10:29.972Z,18.26
2022-08-28T01:12:57.544Z,18.25
2022-08-28T01:15:30.263Z,18.22
2022-08-28T01:18:08.492Z,18.21
2022-08-28T01:20:37.736Z,18.22
2022-08-28T01:23:15.322Z,18.22
2022-08-28T01:25:42.901Z,18.19
2022-08-28T01:28:13.062Z,18.18
2022-08-28T01:30:46.125Z,18.19
2022-08-28T01:33:14.847Z,18.17
2022-08-28T01:35:47.893Z,18.18
2022-08-28T01:38:20.211Z,18.17
2022-08-28T01:40:49.741Z,18.18
2022-08-28T01:43:19.820Z,18.14
2022-08-28T01:45:56.101Z,18.11
2022-08-28T01:48:26.032Z,18.16
2022-08-28T01:50:52.891Z,18.14
2022-08-28T01:53:24.928Z,18.12
2022-08-28T01:55:53.337Z,18.12
2022-08-28T01:58:20.662Z,18.14
2022-08-28T02:00:47.531Z,18.15
2022-08-28T02:03:14.421Z,18.17
2022-08-28T02:05:41.543Z,18.19
2022-08-28T02:08:08.873Z,18.19
2022-08-28T02:10:37.589Z,18.17
2022-08-28T02:13:06.017Z,18.20
2022-08-28T02:15:34.777Z,18.20
2022-08-28T02:18:01.514Z,18.20
2022-08-28T02:20:29.091Z,18.21
2022-08-28T02:22:57.733Z,18.24
2022-08-28T02:25:24.817Z,18.23
2022-08-28T02:27:51.468Z,18.25
2022-08-28T02:30:18.498Z,18.26
2022-08-28T02:32:46.197Z,18.25
2022-08-28T02:35:15.483Z,18.26
2022-08-28T02:37:44.264Z,18.28
2022-08-28T02:40:14.199Z,18.30
2022-08-28T02:42:41.970Z,18.31
2022-08-28T02:45:11.850Z,18.32
2022-08-28T02:47:40.062Z,18.31
2022-08-28T02:50:07.903Z,18.31
2022-08-28T02:52:37.797Z,18.30
2022-08-28T02:55:09.282Z,18.29
2022-08-28T02:57:35.978Z,18.25
2022-08-28T03:00:05.846Z,18.23
2022-08-28T03:02:32.625Z,18.21
2022-08-28T03:05:00.509Z,18.18
2022-08-28T03:07:28.251Z,18.20
2022-08-28T03:09:55.337Z,18.18
2022-08-28T03:12:24.169Z,18.18
2022-08-28T03:14:54.041Z,18.16
2022-08-28T03:17:22.221Z,18.15
2022-08-28T03:19:50.202Z,18.16
2022-08-28T03:22:18.751Z,18.18
2022-08-28T03:24:45.363Z,18.20
2022-08-28T03:27:11.941Z,18.20
2022-08-28T03:29:38.800Z,18.17
2022-08-28T03:32:05.517Z,18.18
2022-08-28T03:34:33.544Z,18.15
2022-08-28T03:37:01.308Z,18.15
2022-08-28T03:39:28.031Z,18.13
2022-08-28T03:41:54.976Z,18.08
2022-08-28T03:44:21.684Z,18.08
2022-08-28T03:46:48.263Z,18.06
2022-08-28T03:49:15.201Z,18.08
2022-08-28T03:51:43.161Z,18.04
2022-08-28T03:54:09.754Z,17.98
2022-08-28T03:56:36.350Z,17.99
2022-08-28T03:59:04.355Z,17.99
2022-08-28T04:01:31.172Z,17.98
2022-08-28T04:03:57.813Z,17.95
2022-08-28T04:06:24.740Z,17.93
2022-08-28T04:08:51.390Z,17.93
2022-08-28T04:11:18.609Z,17.90
2022-08-28T04:13:45.357Z,17.96
2022-08-28T04:16:16.745Z,18.03
2022-08-28T04:18:43.843Z,18.11
2022-08-28T04:21:14.178Z,18.16
2022-08-28T04:23:43.298Z,18.21
2022-08-28T04:26:12.519Z,18.28
2022-08-28T04:28:39.182Z,18.27
2022-08-28T04:31:07.978Z,18.21
2022-08-28T04:33:35.775Z,18.24
2022-08-28T04:36:05.806Z,18.28
2022-08-28T04:38:32.414Z,18.30
2022-08-28T04:40:59.029Z,18.38
2022-08-28T04:43:25.696Z,18.46
2022-08-28T04:45:52.310Z,18.52
2022-08-28T04:48:19.583Z,18.59
2022-08-28T04:50:47.896Z,18.69
2022-08-28T04:53:17.148Z,18.78
2022-08-28T04:55:54.532Z,18.87
2022-08-28T04:58:24.270Z,18.95
2022-08-28T05:00:52.095Z,18.94
2022-08-28T05:03:18.864Z,18.95
2022-08-28T05:05:47.598Z,18.97
2022-08-28T05:08:16.230Z,19.00
2022-08-28T05:10:43.317Z,19.01
2022-08-28T05:13:11.510Z,19.05
2022-08-28T05:15:49.850Z,19.08
2022-08-28T05:18:18.345Z,19.14
2022-08-28T05:20:46.658Z,19.21
2022-08-28T05:23:14.664Z,19.26
2022-08-28T05:25:44.703Z,19.35
2022-08-28T05:28:12.561Z,19.41
2022-08-28T05:30:40.651Z,19.50
2022-08-28T05:33:08.650Z,19.60
2022-08-28T05:35:38.262Z,19.65
2022-08-28T05:38:05.713Z,19.76
2022-08-28T05:40:32.505Z,19.84
2022-08-28T05:42:59.176Z,19.98
2022-08-28T05:45:25.860Z,20.17
2022-08-28T05:47:52.759Z,20.37
2022-08-28T05:50:19.782Z,20.50
2022-08-28T05:52:46.625Z,20.62
2022-08-28T05:55:13.590Z,20.74
2022-08-28T05:57:40.895Z,20.84
2022-08-28T06:00:12.781Z,20.91
2022-08-28T06:02:42.555Z,21.01
2022-08-28T06:05:13.079Z,21.08
2022-08-28T06:07:41.081Z,21.18
2022-08-28T06:10:10.501Z,21.21
2022-08-28T06:12:37.695Z,21.28
2022-08-28T06:15:05.583Z,21.30
2022-08-28T06:17:32.171Z,21.34
2022-08-28T06:19:58.871Z,21.42
2022-08-28T06:22:25.441Z,21.48
2022-08-28T06:24:52.051Z,21.54
2022-08-28T06:27:18.659Z,21.61
2022-08-28T06:29:45.810Z,21.68
2022-08-28T06:32:13.331Z,21.71
2022-08-28T06:34:40.070Z,21.76
2022-08-28T06:37:07.926Z,21.84
2022-08-28T06:39:34.529Z,22.00
2022-08-28T06:42:01.371Z,22.20
2022-08-28T06:44:28.028Z,22.46
2022-08-28T06:46:55.004Z,22.66
2022-08-28T06:49:22.188Z,22.82
2022-08-28T06:51:49.019Z,23.15
2022-08-28T06:54:22.378Z,23.51
2022-08-28T06:56:50.933Z,23.83
2022-08-28T06:59:17.511Z,23.99
2022-08-28T07:01:44.235Z,24.31
2022-08-28T07:04:12.215Z,24.63
2022-08-28T07:06:40.948Z,24.66
2022-08-28T07:09:09.503Z,24.60
2022-08-28T07:11:37.010Z,24.79
2022-08-28T07:14:04.058Z,24.86
2022-08-28T07:16:33.182Z,24.85
2022-08-28T07:19:00.002Z,25.03
2022-08-28T07:21:26.995Z,25.23
2022-08-28T07:23:54.936Z,25.27
2022-08-28T07:26:23.664Z,25.27
2022-08-28T07:28:51.759Z,25.46
2022-08-28T07:31:26.754Z,25.62
2022-08-28T07:33:54.817Z,25.83
2022-08-28T07:36:28.888Z,26.13
2022-08-28T07:38:58.020Z,26.42
2022-08-28T07:41:27.383Z,26.89
2022-08-28T07:44:13.035Z,27.22
2022-08-28T07:46:40.351Z,27.47
2022-08-28T07:49:08.527Z,27.79
2022-08-28T07:51:35.754Z,28.03
2022-08-28T07:54:04.073Z,28.16
2022-08-28T07:56:31.383Z,28.43
2022-08-28T07:58:58.950Z,28.62
2022-08-28T08:01:27.391Z,28.62
2022-08-28T08:04:01.914Z,28.52
2022-08-28T08:06:33.211Z,28.26
2022-08-28T08:09:02.273Z,28.47
2022-08-28T08:11:32.431Z,28.23
2022-08-28T08:14:05.497Z,27.69
2022-08-28T08:16:34.985Z,27.50
2022-08-28T08:19:02.000Z,27.38
2022-08-28T08:21:30.438Z,27.44
2022-08-28T08:23:58.044Z,27.48
2022-08-28T08:26:27.952Z,26.90
2022-08-28T08:28:55.160Z,26.97
2022-08-28T08:31:25.010Z,27.01
2022-08-28T08:33:54.130Z,25.99
2022-08-28T08:36:22.589Z,26.02
2022-08-28T08:38:49.641Z,26.78
2022-08-28T08:41:32.013Z,27.43
2022-08-28T08:44:07.779Z,27.70
2022-08-28T08:47:08.619Z,28.01
2022-08-28T08:49:41.994Z,27.21
2022-08-28T08:52:11.283Z,27.89
2022-08-28T08:54:48.971Z,27.16
2022-08-28T08:57:15.709Z,27.28
2022-08-28T08:59:42.522Z,27.15
2022-08-28T09:02:17.305Z,27.43
2022-08-28T09:04:50.479Z,26.96
2022-08-28T09:07:20.735Z,27.51
2022-08-28T09:09:50.671Z,27.53
2022-08-28T09:12:20.055Z,27.13
2022-08-28T09:15:11.325Z,27.67
2022-08-28T09:17:48.105Z,27.95
2022-08-28T09:20:21.556Z,27.97
2022-08-28T09:22:59.209Z,27.10
2022-08-28T09:25:44.278Z,27.53
2022-08-28T09:28:15.669Z,27.43
2022-08-28T09:30:43.698Z,27.21
2022-08-28T09:33:10.380Z,26.89
2022-08-28T09:35:37.645Z,26.57
2022-08-28T09:38:19.147Z,27.06
2022-08-28T09:41:04.435Z,26.97
2022-08-28T09:43:31.511Z,27.14
2022-08-28T09:46:00.052Z,26.67
2022-08-28T09:48:40.838Z,26.92
2022-08-28T09:51:10.487Z,26.99
2022-08-28T09:53:56.275Z,27.33
2022-08-28T09:56:34.729Z,26.91
2022-08-28T09:59:06.572Z,27.05
2022-08-28T10:01:39.054Z,26.78
2022-08-28T10:04:11.748Z,26.64
2022-08-28T10:06:39.107Z,26.71
2022-08-28T10:09:18.096Z,26.96
2022-08-28T10:11:54.070Z,27.66
2022-08-28T10:14:32.585Z,27.15
2022-08-28T10:17:38.049Z,27.31
2022-08-28T10:20:20.197Z,27.77
2022-08-28T10:23:04.716Z,28.01
2022-08-28T10:25:42.018Z,27.96
2022-08-28T10:28:18.250Z,27.72
2022-08-28T10:31:06.620Z,27.94
2022-08-28T10:33:58.826Z,27.68
2022-08-28T10:36:34.582Z,27.22
2022-08-28T10:39:10.671Z,26.80
2022-08-28T10:41:44.100Z,27.14
2022-08-28T10:44:15.858Z,27.28
2022-08-28T10:46:45.256Z,27.01
2022-08-28T10:49:28.129Z,27.21
2022-08-28T10:52:07.640Z,27.29
2022-08-28T10:54:44.488Z,27.60
2022-08-28T10:57:23.416Z,28.08
2022-08-28T10:59:52.672Z,28.69
2022-08-28T11:02:22.716Z,28.04
2022-08-28T11:04:49.679Z,28.94
2022-08-28T11:07:29.309Z,28.88
2022-08-28T11:09:56.642Z,29.07
2022-08-28T11:12:36.345Z,28.99
2022-08-28T11:15:23.147Z,29.18
2022-08-28T11:17:50.294Z,29.23
2022-08-28T11:20:26.144Z,28.85
2022-08-28T11:22:53.021Z,27.48
2022-08-28T11:25:26.587Z,28.03
2022-08-28T11:28:24.158Z,28.14
2022-08-28T11:31:06.235Z,28.41
2022-08-28T11:33:50.459Z,28.24
2022-08-28T11:36:19.813Z,27.70
2022-08-28T11:38:46.925Z,27.86
2022-08-28T11:41:14.566Z,27.89
2022-08-28T11:43:45.706Z,27.81
2022-08-28T11:46:25.494Z,27.26
2022-08-28T11:48:55.092Z,27.44
2022-08-28T11:51:35.405Z,27.28
2022-08-28T11:54:07.873Z,27.07
2022-08-28T11:56:37.638Z,27.21
2022-08-28T11:59:08.163Z,27.23
2022-08-28T12:01:36.924Z,27.37
2022-08-28T12:04:14.946Z,27.23
2022-08-28T12:06:49.231Z,26.68
2022-08-28T12:09:47.672Z,26.12
2022-08-28T12:12:23.325Z,26.58
2022-08-28T12:14:56.039Z,26.05
2022-08-28T12:17:22.732Z,26.26
2022-08-28T12:19:58.893Z,26.25
2022-08-28T12:22:40.211Z,26.20
2022-08-28T12:25:15.474Z,26.45
2022-08-28T12:27:42.186Z,26.69
2022-08-28T12:30:09.030Z,26.89
2022-08-28T12:32:56.665Z,26.69
2022-08-28T12:35:26.537Z,26.16
2022-08-28T12:37:53.722Z,26.22
2022-08-28T12:40:34.252Z,26.59
2022-08-28T12:43:04.326Z,26.55
2022-08-28T12:45:39.285Z,26.86
2022-08-28T12:48:17.401Z,27.10
2022-08-28T12:50:44.253Z,27.35
2022-08-28T12:53:16.274Z,27.57
2022-08-28T12:55:45.940Z,27.19
2022-08-28T12:58:27.738Z,27.08
2022-08-28T13:00:57.796Z,26.83
2022-08-28T13:03:24.942Z,27.48
2022-08-28T13:05:58.486Z,26.99
2022-08-28T13:08:25.231Z,27.15
2022-08-28T13:10:52.062Z,27.00
2022-08-28T13:13:32.560Z,26.97
2022-08-28T13:16:01.604Z,27.26
2022-08-28T13:18:42.159Z,27.59
2022-08-28T13:21:35.193Z,27.77
2022-08-28T13:24:22.125Z,27.81
2022-08-28T13:26:51.468Z,28.22
2022-08-28T13:29:24.079Z,27.93
2022-08-28T13:32:00.781Z,27.73
2022-08-28T13:34:34.213Z,27.92
2022-08-28T13:37:04.219Z,27.07
2022-08-28T13:39:41.286Z,27.64
2022-08-28T13:42:13.259Z,27.22
2022-08-28T13:44:49.165Z,27.12
2022-08-28T13:47:16.887Z,26.76
2022-08-28T13:49:43.660Z,27.07
2022-08-28T13:52:10.624Z,26.89
2022-08-28T13:54:37.916Z,26.68
2022-08-28T13:57:09.257Z,26.95
2022-08-28T13:59:35.900Z,26.98
2022-08-28T14:02:24.359Z,26.99
2022-08-28T14:04:51.135Z,26.94
2022-08-28T14:07:17.847Z,26.80
2022-08-28T14:09:44.461Z,26.25
2022-08-28T14:12:11.345Z,26.09
2022-08-28T14:14:38.487Z,26.14
2022-08-28T14:17:06.472Z,25.64
2022-08-28T14:19:34.049Z,25.72
2022-08-28T14:22:00.733Z,25.55
2022-08-28T14:24:27.771Z,25.78
2022-08-28T14:26:54.666Z,25.84
2022-08-28T14:29:22.008Z,26.02
2022-08-28T14:31:48.956Z,26.21
2022-08-28T14:34:18.519Z,26.30
2022-08-28T14:36:45.964Z,26.42
2022-08-28T14:39:13.277Z,26.43
2022-08-28T14:41:46.127Z,26.70
2022-08-28T14:44:13.243Z,26.62
2022-08-28T14:46:43.051Z,26.78
2022-08-28T14:49:11.513Z,26.87
2022-08-28T14:51:39.440Z,26.82
2022-08-28T14:54:07.600Z,26.80
2022-08-28T14:56:34.697Z,27.02
2022-08-28T14:59:02.229Z,27.21
2022-08-28T15:01:39.509Z,27.23
2022-08-28T15:04:11.083Z,27.29
2022-08-28T15:06:38.376Z,27.21
2022-08-28T15:09:05.129Z,27.24
2022-08-28T15:11:31.907Z,27.23
2022-08-28T15:13:58.740Z,27.19
2022-08-28T15:16:30.377Z,27.08
2022-08-28T15:18:58.470Z,26.99
2022-08-28T15:21:33.983Z,26.76
2022-08-28T15:24:03.306Z,26.61
2022-08-28T15:26:31.179Z,26.53
2022-08-28T15:29:02.438Z,26.35
2022-08-28T15:31:31.286Z,26.09
2022-08-28T15:33:58.958Z,25.88
2022-08-28T15:36:25.614Z,25.57
2022-08-28T15:39:10.581Z,25.13
2022-08-28T15:41:38.059Z,25.24
2022-08-28T15:44:05.483Z,25.06
2022-08-28T15:46:34.285Z,25.21
2022-08-28T15:49:02.142Z,25.27
2022-08-28T15:51:30.241Z,25.62
2022-08-28T15:53:56.918Z,25.78
2022-08-28T15:56:23.932Z,25.62
2022-08-28T15:58:51.954Z,25.60
2022-08-28T16:01:20.499Z,25.59
2022-08-28T16:03:47.182Z,25.09
2022-08-28T16:06:19.974Z,25.18
2022-08-28T16:08:47.193Z,25.12
2022-08-28T16:11:23.009Z,24.95
2022-08-28T16:13:50.532Z,24.92
2022-08-28T16:16:17.679Z,24.86
2022-08-28T16:18:45.147Z,24.72
2022-08-28T16:21:12.965Z,24.67
2022-08-28T16:23:40.103Z,24.71
2022-08-28T16:26:08.407Z,24.66
2022-08-28T16:28:35.996Z,24.58
2022-08-28T16:31:07.380Z,24.49
2022-08-28T16:33:35.432Z,24.37
2022-08-28T16:36:11.167Z,24.31
2022-08-28T16:38:42.448Z,24.23
2022-08-28T16:41:21.749Z,24.22
2022-08-28T16:43:49.288Z,24.19
2022-08-28T16:46:19.307Z,24.03
2022-08-28T16:48:46.530Z,23.86
2022-08-28T16:51:13.860Z,23.60
2022-08-28T16:53:42.487Z,23.70
2022-08-28T16:56:14.122Z,23.46
2022-08-28T16:58:42.390Z,23.36
2022-08-28T17:01:10.834Z,23.16
2022-08-28T17:03:38.649Z,23.12
2022-08-28T17:06:17.999Z,23.07
2022-08-28T17:08:44.861Z,22.89
2022-08-28T17:11:11.833Z,22.66
2022-08-28T17:13:38.771Z,22.52
2022-08-28T17:16:06.193Z,22.32
2022-08-28T17:18:32.977Z,22.23
2022-08-28T17:21:18.313Z,22.22
2022-08-28T17:23:46.518Z,21.93
2022-08-28T17:26:14.509Z,21.93
2022-08-28T17:28:41.866Z,21.87
2022-08-28T17:31:08.632Z,21.95
2022-08-28T17:33:39.331Z,21.80
2022-08-28T17:36:15.334Z,21.61
2022-08-28T17:38:54.504Z,21.55
2022-08-28T17:41:21.117Z,21.40
2022-08-28T17:43:47.967Z,21.32
2022-08-28T17:46:14.617Z,21.18
2022-08-28T17:48:41.478Z,21.19
2022-08-28T17:51:19.532Z,21.04
2022-08-28T17:53:54.186Z,20.98
2022-08-28T17:56:21.451Z,21.15
2022-08-28T17:59:02.751Z,21.02
2022-08-28T18:01:29.389Z,20.83
2022-08-28T18:03:56.131Z,20.77
2022-08-28T18:06:22.842Z,20.73
2022-08-28T18:08:51.800Z,20.81
2022-08-28T18:11:19.168Z,20.71
2022-08-28T18:13:46.561Z,20.60
2022-08-28T18:16:13.527Z,20.59
2022-08-28T18:18:41.446Z,20.56
2022-08-28T18:21:10.321Z,20.69
2022-08-28T18:23:37.098Z,20.60
2022-08-28T18:26:03.702Z,20.48
2022-08-28T18:28:30.411Z,20.40
2022-08-28T18:30:57.083Z,20.40
2022-08-28T18:33:24.250Z,20.43
2022-08-28T18:35:51.928Z,20.46
2022-08-28T18:38:19.685Z,20.50
2022-08-28T18:40:46.743Z,20.48
2022-08-28T18:43:13.813Z,20.38
2022-08-28T18:45:40.601Z,20.33
2022-08-28T18:48:10.580Z,20.37
2022-08-28T18:50:37.949Z,20.39
2022-08-28T18:53:05.492Z,20.41
2022-08-28T18:55:32.666Z,20.35
2022-08-28T18:58:00.762Z,20.36
2022-08-28T19:00:27.963Z,20.39
2022-08-28T19:02:54.851Z,20.40
2022-08-28T19:05:21.820Z,20.42
2022-08-28T19:07:48.858Z,20.41
2022-08-28T19:10:32.812Z,20.38
2022-08-28T19:13:01.115Z,20.32
2022-08-28T19:15:28.279Z,20.30
2022-08-28T19:17:55.088Z,20.32
2022-08-28T19:20:22.265Z,20.27
2022-08-28T19:22:49.067Z,20.22
2022-08-28T19:25:27.945Z,20.22
2022-08-28T19:27:59.620Z,20.18
2022-08-28T19:30:28.392Z,20.13
2022-08-28T19:32:55.010Z,20.13
2022-08-28T19:35:24.130Z,20.10
2022-08-28T19:37:52.268Z,20.05
2022-08-28T19:40:20.522Z,20.02
2022-08-28T19:42:47.765Z,19.95
2022-08-28T19:45:14.988Z,19.93
2022-08-28T19:47:41.949Z,19.88
2022-08-28T19:50:10.221Z,19.88
2022-08-28T19:52:36.917Z,19.84
2022-08-28T19:55:05.725Z,19.84
2022-08-28T19:57:33.415Z,19.79
2022-08-28T20:00:00.355Z,19.82
2022-08-28T20:02:28.155Z,19.74
2022-08-28T20:04:55.363Z,19.74
2022-08-28T20:07:22.196Z,19.75
2022-08-28T20:09:48.826Z,19.78
2022-08-28T20:12:15.400Z,19.72
2022-08-28T20:14:42.639Z,19.72
2022-08-28T20:17:09.393Z,19.82
2022-08-28T20:19:36.105Z,19.85
2022-08-28T20:22:03.806Z,19.73
2022-08-28T20:24:30.489Z,19.83
2022-08-28T20:26:57.341Z,19.78
2022-08-28T20:29:25.034Z,19.69
2022-08-28T20:31:52.007Z,19.67
2022-08-28T20:34:19.207Z,19.63
2022-08-28T20:36:46.476Z,19.70
2022-08-28T20:39:14.744Z,19.67
2022-08-28T20:41:42.522Z,19.60
2022-08-28T20:44:10.551Z,19.57
2022-08-28T20:46:41.222Z,19.68
2022-08-28T20:49:12.423Z,19.65
2022-08-28T20:51:58.848Z,19.73
2022-08-28T20:54:28.636Z,19.72
2022-08-28T20:56:57.239Z,19.69
2022-08-28T20:59:26.357Z,19.77
2022-08-28T21:02:05.288Z,19.78
2022-08-28T21:04:35.792Z,19.90
2022-08-28T21:07:03.271Z,19.80
2022-08-28T21:09:35.897Z,19.76
2022-08-28T21:12:17.131Z,19.71
2022-08-28T21:14:44.335Z,19.66
2022-08-28T21:17:20.822Z,19.71
2022-08-28T21:19:55.931Z,19.77
2022-08-28T21:22:23.013Z,19.74
2022-08-28T21:24:50.045Z,19.74
2022-08-28T21:27:16.607Z,19.76
2022-08-28T21:29:45.848Z,19.84
2022-08-28T21:32:12.497Z,19.94
2022-08-28T21:34:39.135Z,19.95
2022-08-28T21:37:06.422Z,19.85
2022-08-28T21:39:33.425Z,19.81
2022-08-28T21:42:00.021Z,19.92
2022-08-28T21:44:26.626Z,19.88
2022-08-28T21:46:53.375Z,19.86
2022-08-28T21:49:20.028Z,19.88
2022-08-28T21:51:47.089Z,19.92
2022-08-28T21:54:14.037Z,19.83
2022-08-28T21:56:40.731Z,19.90
2022-08-28T21:59:07.383Z,19.85
2022-08-28T22:01:34.202Z,19.77
2022-08-28T22:04:00.919Z,19.73
2022-08-28T22:06:27.575Z,19.76
2022-08-28T22:08:55.675Z,19.62
2022-08-28T22:11:25.101Z,19.71
2022-08-28T22:13:53.001Z,19.73
2022-08-28T22:16:20.397Z,19.73
2022-08-28T22:18:47.286Z,19.72
2022-08-28T22:21:54.725Z,19.78
2022-08-28T22:24:21.345Z,19.78
2022-08-28T22:26:48.397Z,19.74
2022-08-28T22:29:15.056Z,19.74
2022-08-28T22:31:46.046Z,19.87
2022-08-28T22:34:13.355Z,19.74
2022-08-28T22:36:39.986Z,19.71
2022-08-28T22:39:06.837Z,19.76
2022-08-28T22:41:33.515Z,19.81
2022-08-28T22:44:00.198Z,19.75
2022-08-28T22:46:28.312Z,19.68
2022-08-28T22:48:55.018Z,19.61
2022-08-28T22:51:21.673Z,19.62
2022-08-28T22:53:48.577Z,19.57
2022-08-28T22:56:16.275Z,19.52
2022-08-28T22:58:42.899Z,19.57
2022-08-28T23:01:13.503Z,19.58
2022-08-28T23:03:40.626Z,19.55
2022-08-28T23:06:07.669Z,19.59
2022-08-28T23:08:34.371Z,19.50
2022-08-28T23:11:01.297Z,19.56
2022-08-28T23:13:28.709Z,19.44
2022-08-28T23:15:55.411Z,19.47
2022-08-28T23:18:22.277Z,19.41
2022-08-28T23:20:50.517Z,19.43
2022-08-28T23:23:17.381Z,19.38
2022-08-28T23:25:44.148Z,19.41
2022-08-28T23:28:10.723Z,19.38
2022-08-28T23:30:38.989Z,19.42
2022-08-28T23:33:08.509Z,19.39
2022-08-28T23:35:35.867Z,19.41
2022-08-28T23:38:04.278Z,19.46
2022-08-28T23:40:33.140Z,19.46
2022-08-28T23:43:02.799Z,19.45
2022-08-28T23:45:29.555Z,19.44
2022-08-28T23:47:56.517Z,19.59
2022-08-28T23:50:23.259Z,19.54
2022-08-28T23:52:50.256Z,19.45
2022-08-28T23:55:18.693Z,19.52
2022-08-28T23:57:45.836Z,19.60
